sensor_id;sensor_type;location;lat;lon;timestamp;P1;durP1;ratioP1;P2;durP2;ratioP2
24715;SDS011;12822;50.124;8.678;2022-12-17T00:02:05;31.20;;;13.77;;
24715;SDS011;12822;50.124;8.678;2022-12-17T00:04:50;29.05;;;13.73;;
24715;SDS011;12822;50.124;8.678;2022-12-17T00:07:34;36.13;;;14.60;;
24715;SDS011;12822;50.124;8.678;2022-12-17T00:10:19;30.15;;;13.68;;
24715;SDS011;12822;50.124;8.678;2022-12-17T00:13:04;32.30;;;13.45;;
24715;SDS011;12822;50.124;8.678;2022-12-17T00:16:02;30.70;;;13.63;;
24715;SDS011;12822;50.124;8.678;2022-12-17T00:18:46;32.17;;;13.65;;
24715;SDS011;12822;50.124;8.678;2022-12-17T00:21:31;29.40;;;13.68;;
24715;SDS011;12822;50.124;8.678;2022-12-17T00:24:16;28.33;;;13.55;;
24715;SDS011;12822;50.124;8.678;2022-12-17T00:27:00;29.70;;;14.70;;
24715;SDS011;12822;50.124;8.678;2022-12-17T00:29:45;25.77;;;13.27;;
24715;SDS011;12822;50.124;8.678;2022-12-17T00:32:29;27.02;;;12.88;;
24715;SDS011;12822;50.124;8.678;2022-12-17T00:35:14;34.83;;;13.48;;
24715;SDS011;12822;50.124;8.678;2022-12-17T00:37:58;29.23;;;14.02;;
24715;SDS011;12822;50.124;8.678;2022-12-17T00:40:43;30.08;;;13.65;;
24715;SDS011;12822;50.124;8.678;2022-12-17T00:43:27;28.70;;;14.65;;
24715;SDS011;12822;50.124;8.678;2022-12-17T00:46:12;31.75;;;14.38;;
24715;SDS011;12822;50.124;8.678;2022-12-17T00:48:56;27.73;;;13.90;;
24715;SDS011;12822;50.124;8.678;2022-12-17T00:51:41;36.88;;;14.43;;
24715;SDS011;12822;50.124;8.678;2022-12-17T00:54:25;28.33;;;14.82;;
24715;SDS011;12822;50.124;8.678;2022-12-17T00:57:10;35.75;;;15.95;;
24715;SDS011;12822;50.124;8.678;2022-12-17T00:59:55;29.55;;;14.73;;
24715;SDS011;12822;50.124;8.678;2022-12-17T01:02:39;34.42;;;15.48;;
24715;SDS011;12822;50.124;8.678;2022-12-17T01:05:24;30.98;;;14.93;;
24715;SDS011;12822;50.124;8.678;2022-12-17T01:08:09;34.35;;;15.23;;
24715;SDS011;12822;50.124;8.678;2022-12-17T01:11:00;34.13;;;15.40;;
24715;SDS011;12822;50.124;8.678;2022-12-17T01:13:45;33.28;;;16.23;;
24715;SDS011;12822;50.124;8.678;2022-12-17T01:16:30;38.45;;;16.92;;
24715;SDS011;12822;50.124;8.678;2022-12-17T01:19:15;34.90;;;15.23;;
24715;SDS011;12822;50.124;8.678;2022-12-17T01:21:59;33.65;;;15.15;;
24715;SDS011;12822;50.124;8.678;2022-12-17T01:24:49;29.13;;;14.35;;
24715;SDS011;12822;50.124;8.678;2022-12-17T01:27:34;31.45;;;15.32;;
24715;SDS011;12822;50.124;8.678;2022-12-17T01:30:18;31.63;;;15.13;;
24715;SDS011;12822;50.124;8.678;2022-12-17T01:33:04;35.47;;;14.82;;
24715;SDS011;12822;50.124;8.678;2022-12-17T01:35:49;29.25;;;14.68;;
24715;SDS011;12822;50.124;8.678;2022-12-17T01:38:33;30.38;;;14.98;;
24715;SDS011;12822;50.124;8.678;2022-12-17T01:41:18;27.88;;;15.18;;
24715;SDS011;12822;50.124;8.678;2022-12-17T01:47:06;33.97;;;15.73;;
24715;SDS011;12822;50.124;8.678;2022-12-17T01:49:51;35.38;;;16.48;;
24715;SDS011;12822;50.124;8.678;2022-12-17T01:52:56;35.60;;;17.35;;
24715;SDS011;12822;50.124;8.678;2022-12-17T01:55:41;40.75;;;17.67;;
24715;SDS011;12822;50.124;8.678;2022-12-17T01:58:26;43.42;;;20.17;;
24715;SDS011;12822;50.124;8.678;2022-12-17T02:01:11;51.00;;;21.50;;
24715;SDS011;12822;50.124;8.678;2022-12-17T02:03:55;44.45;;;20.67;;
24715;SDS011;12822;50.124;8.678;2022-12-17T02:06:41;44.25;;;21.80;;
24715;SDS011;12822;50.124;8.678;2022-12-17T02:09:32;49.22;;;21.30;;
24715;SDS011;12822;50.124;8.678;2022-12-17T02:12:24;52.65;;;22.58;;
24715;SDS011;12822;50.124;8.678;2022-12-17T02:15:12;51.95;;;23.88;;
24715;SDS011;12822;50.124;8.678;2022-12-17T02:18:01;55.05;;;23.33;;
24715;SDS011;12822;50.124;8.678;2022-12-17T02:20:50;54.53;;;25.00;;
24715;SDS011;12822;50.124;8.678;2022-12-17T02:23:55;51.00;;;24.00;;
24715;SDS011;12822;50.124;8.678;2022-12-17T02:26:50;51.28;;;23.45;;
24715;SDS011;12822;50.124;8.678;2022-12-17T02:29:37;55.42;;;24.35;;
24715;SDS011;12822;50.124;8.678;2022-12-17T02:32:23;53.28;;;23.17;;
24715;SDS011;12822;50.124;8.678;2022-12-17T02:35:13;59.95;;;25.48;;
24715;SDS011;12822;50.124;8.678;2022-12-17T02:37:59;54.03;;;22.73;;
24715;SDS011;12822;50.124;8.678;2022-12-17T02:40:43;65.10;;;26.33;;
24715;SDS011;12822;50.124;8.678;2022-12-17T02:43:29;55.20;;;23.38;;
24715;SDS011;12822;50.124;8.678;2022-12-17T02:46:15;53.53;;;24.27;;
24715;SDS011;12822;50.124;8.678;2022-12-17T02:49:01;52.47;;;24.13;;
24715;SDS011;12822;50.124;8.678;2022-12-17T02:51:45;52.72;;;25.10;;
24715;SDS011;12822;50.124;8.678;2022-12-17T02:54:30;56.55;;;25.23;;
24715;SDS011;12822;50.124;8.678;2022-12-17T02:57:16;53.90;;;25.17;;
24715;SDS011;12822;50.124;8.678;2022-12-17T03:00:01;60.45;;;26.15;;
24715;SDS011;12822;50.124;8.678;2022-12-17T03:02:45;51.58;;;24.95;;
24715;SDS011;12822;50.124;8.678;2022-12-17T03:05:30;56.65;;;24.17;;
24715;SDS011;12822;50.124;8.678;2022-12-17T03:08:14;61.90;;;25.42;;
24715;SDS011;12822;50.124;8.678;2022-12-17T03:10:59;56.97;;;24.67;;
24715;SDS011;12822;50.124;8.678;2022-12-17T03:13:43;52.78;;;24.38;;
24715;SDS011;12822;50.124;8.678;2022-12-17T03:16:28;52.47;;;24.63;;
24715;SDS011;12822;50.124;8.678;2022-12-17T03:19:13;50.90;;;23.67;;
24715;SDS011;12822;50.124;8.678;2022-12-17T03:21:57;48.60;;;23.55;;
24715;SDS011;12822;50.124;8.678;2022-12-17T03:24:42;53.33;;;24.60;;
24715;SDS011;12822;50.124;8.678;2022-12-17T03:27:26;53.88;;;23.65;;
24715;SDS011;12822;50.124;8.678;2022-12-17T03:30:11;55.58;;;25.15;;
24715;SDS011;12822;50.124;8.678;2022-12-17T03:32:56;56.17;;;24.90;;
24715;SDS011;12822;50.124;8.678;2022-12-17T03:35:41;51.40;;;24.20;;
24715;SDS011;12822;50.124;8.678;2022-12-17T03:38:25;53.22;;;23.83;;
24715;SDS011;12822;50.124;8.678;2022-12-17T03:41:10;50.30;;;24.38;;
24715;SDS011;12822;50.124;8.678;2022-12-17T03:43:54;53.03;;;25.13;;
24715;SDS011;12822;50.124;8.678;2022-12-17T03:46:39;58.08;;;25.08;;
24715;SDS011;12822;50.124;8.678;2022-12-17T03:49:23;55.47;;;24.80;;
24715;SDS011;12822;50.124;8.678;2022-12-17T03:52:08;49.47;;;23.27;;
24715;SDS011;12822;50.124;8.678;2022-12-17T03:54:52;55.28;;;24.65;;
24715;SDS011;12822;50.124;8.678;2022-12-17T03:57:37;52.13;;;23.27;;
24715;SDS011;12822;50.124;8.678;2022-12-17T04:00:22;53.28;;;24.08;;
24715;SDS011;12822;50.124;8.678;2022-12-17T04:03:06;52.08;;;23.48;;
24715;SDS011;12822;50.124;8.678;2022-12-17T04:05:51;51.45;;;24.17;;
24715;SDS011;12822;50.124;8.678;2022-12-17T04:08:36;52.72;;;24.25;;
24715;SDS011;12822;50.124;8.678;2022-12-17T04:11:20;54.53;;;23.42;;
24715;SDS011;12822;50.124;8.678;2022-12-17T04:14:05;58.30;;;24.98;;
24715;SDS011;12822;50.124;8.678;2022-12-17T04:16:49;47.50;;;23.67;;
24715;SDS011;12822;50.124;8.678;2022-12-17T04:19:34;54.22;;;25.40;;
24715;SDS011;12822;50.124;8.678;2022-12-17T04:22:18;58.40;;;24.85;;
24715;SDS011;12822;50.124;8.678;2022-12-17T04:25:03;57.88;;;24.15;;
24715;SDS011;12822;50.124;8.678;2022-12-17T04:27:47;56.55;;;23.98;;
24715;SDS011;12822;50.124;8.678;2022-12-17T04:30:32;45.25;;;22.27;;
24715;SDS011;12822;50.124;8.678;2022-12-17T04:33:17;49.97;;;23.17;;
24715;SDS011;12822;50.124;8.678;2022-12-17T04:36:01;51.28;;;22.70;;
24715;SDS011;12822;50.124;8.678;2022-12-17T04:38:46;49.85;;;22.90;;
24715;SDS011;12822;50.124;8.678;2022-12-17T04:41:31;52.25;;;25.15;;
24715;SDS011;12822;50.124;8.678;2022-12-17T04:44:15;54.10;;;23.52;;
24715;SDS011;12822;50.124;8.678;2022-12-17T04:47:00;48.58;;;23.25;;
24715;SDS011;12822;50.124;8.678;2022-12-17T04:49:44;55.63;;;24.48;;
24715;SDS011;12822;50.124;8.678;2022-12-17T04:52:29;50.05;;;22.98;;
24715;SDS011;12822;50.124;8.678;2022-12-17T04:55:13;51.83;;;25.15;;
24715;SDS011;12822;50.124;8.678;2022-12-17T04:58:02;52.40;;;23.50;;
24715;SDS011;12822;50.124;8.678;2022-12-17T05:00:46;52.45;;;23.73;;
24715;SDS011;12822;50.124;8.678;2022-12-17T05:03:31;55.05;;;23.55;;
24715;SDS011;12822;50.124;8.678;2022-12-17T05:06:15;48.55;;;23.00;;
24715;SDS011;12822;50.124;8.678;2022-12-17T05:09:00;50.40;;;24.38;;
24715;SDS011;12822;50.124;8.678;2022-12-17T05:11:44;46.40;;;22.48;;
24715;SDS011;12822;50.124;8.678;2022-12-17T05:14:29;55.40;;;23.70;;
24715;SDS011;12822;50.124;8.678;2022-12-17T05:17:14;52.88;;;23.65;;
24715;SDS011;12822;50.124;8.678;2022-12-17T05:19:58;53.55;;;23.50;;
24715;SDS011;12822;50.124;8.678;2022-12-17T05:22:43;52.72;;;23.50;;
24715;SDS011;12822;50.124;8.678;2022-12-17T05:25:27;51.78;;;24.70;;
24715;SDS011;12822;50.124;8.678;2022-12-17T05:28:12;50.97;;;23.63;;
24715;SDS011;12822;50.124;8.678;2022-12-17T05:30:56;58.25;;;23.60;;
24715;SDS011;12822;50.124;8.678;2022-12-17T05:33:41;53.75;;;23.15;;
24715;SDS011;12822;50.124;8.678;2022-12-17T05:36:26;53.00;;;23.33;;
24715;SDS011;12822;50.124;8.678;2022-12-17T05:39:10;56.83;;;23.25;;
24715;SDS011;12822;50.124;8.678;2022-12-17T05:41:55;53.00;;;23.70;;
24715;SDS011;12822;50.124;8.678;2022-12-17T05:44:40;50.67;;;23.40;;
24715;SDS011;12822;50.124;8.678;2022-12-17T05:47:24;50.08;;;22.65;;
24715;SDS011;12822;50.124;8.678;2022-12-17T05:50:09;47.13;;;21.80;;
24715;SDS011;12822;50.124;8.678;2022-12-17T05:52:56;46.70;;;21.73;;
24715;SDS011;12822;50.124;8.678;2022-12-17T05:55:46;55.83;;;22.95;;
24715;SDS011;12822;50.124;8.678;2022-12-17T05:58:31;46.45;;;21.40;;
24715;SDS011;12822;50.124;8.678;2022-12-17T06:01:16;46.92;;;21.38;;
24715;SDS011;12822;50.124;8.678;2022-12-17T06:04:01;54.70;;;21.45;;
24715;SDS011;12822;50.124;8.678;2022-12-17T06:06:46;52.88;;;21.90;;
24715;SDS011;12822;50.124;8.678;2022-12-17T06:09:30;45.90;;;20.70;;
24715;SDS011;12822;50.124;8.678;2022-12-17T06:12:15;45.63;;;21.50;;
24715;SDS011;12822;50.124;8.678;2022-12-17T06:15:00;49.97;;;22.65;;
24715;SDS011;12822;50.124;8.678;2022-12-17T06:17:54;48.83;;;21.00;;
24715;SDS011;12822;50.124;8.678;2022-12-17T06:20:39;48.85;;;22.30;;
24715;SDS011;12822;50.124;8.678;2022-12-17T06:23:23;51.38;;;23.35;;
24715;SDS011;12822;50.124;8.678;2022-12-17T06:26:08;46.53;;;22.67;;
24715;SDS011;12822;50.124;8.678;2022-12-17T06:28:52;48.15;;;20.27;;
24715;SDS011;12822;50.124;8.678;2022-12-17T06:31:37;44.28;;;20.63;;
24715;SDS011;12822;50.124;8.678;2022-12-17T06:34:22;41.50;;;19.83;;
24715;SDS011;12822;50.124;8.678;2022-12-17T06:37:06;43.58;;;20.80;;
24715;SDS011;12822;50.124;8.678;2022-12-17T06:39:51;47.20;;;21.83;;
24715;SDS011;12822;50.124;8.678;2022-12-17T06:42:35;44.22;;;20.33;;
24715;SDS011;12822;50.124;8.678;2022-12-17T06:45:20;46.05;;;21.33;;
24715;SDS011;12822;50.124;8.678;2022-12-17T06:48:05;40.78;;;19.70;;
24715;SDS011;12822;50.124;8.678;2022-12-17T06:50:54;49.45;;;19.75;;
24715;SDS011;12822;50.124;8.678;2022-12-17T06:53:40;47.97;;;20.45;;
24715;SDS011;12822;50.124;8.678;2022-12-17T06:56:25;42.85;;;19.80;;
24715;SDS011;12822;50.124;8.678;2022-12-17T06:59:09;47.65;;;20.38;;
24715;SDS011;12822;50.124;8.678;2022-12-17T07:01:54;49.00;;;19.23;;
24715;SDS011;12822;50.124;8.678;2022-12-17T07:04:38;58.17;;;19.92;;
24715;SDS011;12822;50.124;8.678;2022-12-17T07:07:23;53.97;;;20.80;;
24715;SDS011;12822;50.124;8.678;2022-12-17T07:10:07;48.95;;;21.33;;
24715;SDS011;12822;50.124;8.678;2022-12-17T07:12:52;61.85;;;21.25;;
24715;SDS011;12822;50.124;8.678;2022-12-17T07:15:36;54.92;;;21.55;;
24715;SDS011;12822;50.124;8.678;2022-12-17T07:18:21;55.22;;;21.00;;
24715;SDS011;12822;50.124;8.678;2022-12-17T07:21:06;45.25;;;19.50;;
24715;SDS011;12822;50.124;8.678;2022-12-17T07:24:04;55.45;;;19.95;;
24715;SDS011;12822;50.124;8.678;2022-12-17T07:26:49;56.53;;;20.60;;
24715;SDS011;12822;50.124;8.678;2022-12-17T07:29:34;61.05;;;22.02;;
24715;SDS011;12822;50.124;8.678;2022-12-17T07:32:18;48.20;;;18.65;;
24715;SDS011;12822;50.124;8.678;2022-12-17T07:35:03;50.95;;;20.02;;
24715;SDS011;12822;50.124;8.678;2022-12-17T07:37:48;49.60;;;19.83;;
24715;SDS011;12822;50.124;8.678;2022-12-17T07:40:32;48.38;;;18.35;;
24715;SDS011;12822;50.124;8.678;2022-12-17T07:43:17;53.00;;;19.15;;
24715;SDS011;12822;50.124;8.678;2022-12-17T07:46:01;51.80;;;18.30;;
24715;SDS011;12822;50.124;8.678;2022-12-17T07:48:46;54.15;;;18.90;;
24715;SDS011;12822;50.124;8.678;2022-12-17T07:51:30;52.20;;;19.52;;
24715;SDS011;12822;50.124;8.678;2022-12-17T07:54:15;59.58;;;20.83;;
24715;SDS011;12822;50.124;8.678;2022-12-17T07:57:00;50.58;;;19.73;;
24715;SDS011;12822;50.124;8.678;2022-12-17T07:59:44;49.33;;;19.92;;
24715;SDS011;12822;50.124;8.678;2022-12-17T08:02:29;50.35;;;17.77;;
24715;SDS011;12822;50.124;8.678;2022-12-17T08:05:13;51.35;;;20.45;;
24715;SDS011;12822;50.124;8.678;2022-12-17T08:08:05;57.72;;;20.23;;
24715;SDS011;12822;50.124;8.678;2022-12-17T08:10:49;57.85;;;19.63;;
24715;SDS011;12822;50.124;8.678;2022-12-17T08:13:34;56.53;;;20.00;;
24715;SDS011;12822;50.124;8.678;2022-12-17T08:16:18;54.90;;;21.05;;
24715;SDS011;12822;50.124;8.678;2022-12-17T08:19:05;58.20;;;22.83;;
24715;SDS011;12822;50.124;8.678;2022-12-17T08:21:50;57.70;;;22.08;;
24715;SDS011;12822;50.124;8.678;2022-12-17T08:24:34;59.70;;;21.15;;
24715;SDS011;12822;50.124;8.678;2022-12-17T08:27:19;52.22;;;20.88;;
24715;SDS011;12822;50.124;8.678;2022-12-17T08:30:04;57.28;;;21.80;;
24715;SDS011;12822;50.124;8.678;2022-12-17T08:32:49;62.58;;;22.50;;
24715;SDS011;12822;50.124;8.678;2022-12-17T08:35:33;59.70;;;20.90;;
24715;SDS011;12822;50.124;8.678;2022-12-17T08:38:18;49.85;;;19.58;;
24715;SDS011;12822;50.124;8.678;2022-12-17T08:41:03;50.22;;;20.10;;
24715;SDS011;12822;50.124;8.678;2022-12-17T08:43:47;53.03;;;20.92;;
24715;SDS011;12822;50.124;8.678;2022-12-17T08:46:32;57.97;;;21.13;;
24715;SDS011;12822;50.124;8.678;2022-12-17T08:49:17;57.08;;;21.23;;
24715;SDS011;12822;50.124;8.678;2022-12-17T08:52:01;63.20;;;23.67;;
24715;SDS011;12822;50.124;8.678;2022-12-17T08:54:46;69.43;;;23.50;;
24715;SDS011;12822;50.124;8.678;2022-12-17T08:57:30;65.93;;;23.45;;
24715;SDS011;12822;50.124;8.678;2022-12-17T09:00:15;61.17;;;22.63;;
24715;SDS011;12822;50.124;8.678;2022-12-17T09:03:00;59.70;;;21.10;;
24715;SDS011;12822;50.124;8.678;2022-12-17T09:05:45;75.30;;;24.83;;
24715;SDS011;12822;50.124;8.678;2022-12-17T09:08:31;77.45;;;25.90;;
24715;SDS011;12822;50.124;8.678;2022-12-17T09:11:16;68.15;;;23.70;;
24715;SDS011;12822;50.124;8.678;2022-12-17T09:14:00;77.43;;;26.73;;
24715;SDS011;12822;50.124;8.678;2022-12-17T09:16:45;81.13;;;27.05;;
24715;SDS011;12822;50.124;8.678;2022-12-17T09:19:30;65.68;;;25.33;;
24715;SDS011;12822;50.124;8.678;2022-12-17T09:22:14;70.82;;;24.30;;
24715;SDS011;12822;50.124;8.678;2022-12-17T09:24:59;87.10;;;25.48;;
24715;SDS011;12822;50.124;8.678;2022-12-17T09:27:43;69.50;;;24.33;;
24715;SDS011;12822;50.124;8.678;2022-12-17T09:30:28;74.45;;;27.27;;
24715;SDS011;12822;50.124;8.678;2022-12-17T09:33:13;82.15;;;26.95;;
24715;SDS011;12822;50.124;8.678;2022-12-17T09:36:01;87.40;;;31.70;;
24715;SDS011;12822;50.124;8.678;2022-12-17T09:38:46;87.28;;;31.73;;
24715;SDS011;12822;50.124;8.678;2022-12-17T09:41:49;111.18;;;35.22;;
24715;SDS011;12822;50.124;8.678;2022-12-17T09:47:33;96.40;;;32.17;;
24715;SDS011;12822;50.124;8.678;2022-12-17T09:50:21;83.70;;;31.20;;
24715;SDS011;12822;50.124;8.678;2022-12-17T09:53:49;74.13;;;27.73;;
24715;SDS011;12822;50.124;8.678;2022-12-17T09:56:13;86.07;;;27.83;;
24715;SDS011;12822;50.124;8.678;2022-12-17T09:58:58;78.30;;;26.67;;
24715;SDS011;12822;50.124;8.678;2022-12-17T10:01:43;76.18;;;27.13;;
24715;SDS011;12822;50.124;8.678;2022-12-17T10:04:36;63.35;;;24.33;;
24715;SDS011;12822;50.124;8.678;2022-12-17T10:07:22;63.13;;;23.13;;
24715;SDS011;12822;50.124;8.678;2022-12-17T10:10:14;67.15;;;24.23;;
24715;SDS011;12822;50.124;8.678;2022-12-17T10:12:58;63.85;;;23.85;;
24715;SDS011;12822;50.124;8.678;2022-12-17T10:15:43;70.40;;;25.95;;
24715;SDS011;12822;50.124;8.678;2022-12-17T10:18:28;66.43;;;24.60;;
24715;SDS011;12822;50.124;8.678;2022-12-17T10:21:13;59.85;;;24.23;;
24715;SDS011;12822;50.124;8.678;2022-12-17T10:24:04;61.35;;;23.77;;
24715;SDS011;12822;50.124;8.678;2022-12-17T10:26:49;63.22;;;24.60;;
24715;SDS011;12822;50.124;8.678;2022-12-17T10:29:34;57.55;;;23.25;;
24715;SDS011;12822;50.124;8.678;2022-12-17T10:32:19;63.08;;;23.70;;
24715;SDS011;12822;50.124;8.678;2022-12-17T10:38:18;55.17;;;21.13;;
24715;SDS011;12822;50.124;8.678;2022-12-17T10:41:17;56.97;;;21.80;;
24715;SDS011;12822;50.124;8.678;2022-12-17T10:44:01;52.65;;;20.67;;
24715;SDS011;12822;50.124;8.678;2022-12-17T10:46:46;60.33;;;23.33;;
24715;SDS011;12822;50.124;8.678;2022-12-17T10:49:39;55.45;;;22.20;;
24715;SDS011;12822;50.124;8.678;2022-12-17T10:52:28;57.80;;;22.40;;
24715;SDS011;12822;50.124;8.678;2022-12-17T10:58:03;45.35;;;21.10;;
24715;SDS011;12822;50.124;8.678;2022-12-17T11:00:48;53.15;;;22.58;;
24715;SDS011;12822;50.124;8.678;2022-12-17T11:03:54;54.13;;;22.33;;
24715;SDS011;12822;50.124;8.678;2022-12-17T11:06:41;51.63;;;21.98;;
24715;SDS011;12822;50.124;8.678;2022-12-17T11:12:27;54.55;;;23.08;;
24715;SDS011;12822;50.124;8.678;2022-12-17T11:15:16;53.60;;;21.00;;
24715;SDS011;12822;50.124;8.678;2022-12-17T11:18:01;52.28;;;21.70;;
24715;SDS011;12822;50.124;8.678;2022-12-17T11:20:53;49.67;;;23.13;;
24715;SDS011;12822;50.124;8.678;2022-12-17T11:23:40;55.13;;;23.58;;
24715;SDS011;12822;50.124;8.678;2022-12-17T11:26:25;52.83;;;21.42;;
24715;SDS011;12822;50.124;8.678;2022-12-17T11:29:12;51.50;;;23.77;;
24715;SDS011;12822;50.124;8.678;2022-12-17T11:37:54;47.97;;;20.58;;
24715;SDS011;12822;50.124;8.678;2022-12-17T11:40:41;47.28;;;21.38;;
24715;SDS011;12822;50.124;8.678;2022-12-17T11:46:16;50.15;;;21.30;;
24715;SDS011;12822;50.124;8.678;2022-12-17T11:49:14;54.65;;;23.60;;
24715;SDS011;12822;50.124;8.678;2022-12-17T11:52:08;53.08;;;21.00;;
24715;SDS011;12822;50.124;8.678;2022-12-17T11:55:01;51.45;;;22.45;;
24715;SDS011;12822;50.124;8.678;2022-12-17T12:00:34;59.00;;;22.08;;
24715;SDS011;12822;50.124;8.678;2022-12-17T12:03:27;51.30;;;21.88;;
24715;SDS011;12822;50.124;8.678;2022-12-17T12:06:22;52.47;;;21.70;;
24715;SDS011;12822;50.124;8.678;2022-12-17T12:09:51;52.28;;;22.67;;
24715;SDS011;12822;50.124;8.678;2022-12-17T12:15:03;58.70;;;23.23;;
24715;SDS011;12822;50.124;8.678;2022-12-17T12:18:34;53.38;;;22.52;;
24715;SDS011;12822;50.124;8.678;2022-12-17T12:23:52;51.15;;;23.65;;
24715;SDS011;12822;50.124;8.678;2022-12-17T12:26:49;53.63;;;22.83;;
24715;SDS011;12822;50.124;8.678;2022-12-17T12:29:45;62.60;;;26.92;;
24715;SDS011;12822;50.124;8.678;2022-12-17T12:35:34;64.82;;;24.70;;
24715;SDS011;12822;50.124;8.678;2022-12-17T12:38:20;56.80;;;24.30;;
24715;SDS011;12822;50.124;8.678;2022-12-17T12:44:23;60.95;;;26.80;;
24715;SDS011;12822;50.124;8.678;2022-12-17T12:47:09;62.85;;;24.17;;
24715;SDS011;12822;50.124;8.678;2022-12-17T12:50:02;66.25;;;26.90;;
24715;SDS011;12822;50.124;8.678;2022-12-17T12:52:52;61.17;;;26.10;;
24715;SDS011;12822;50.124;8.678;2022-12-17T12:55:40;67.03;;;27.63;;
24715;SDS011;12822;50.124;8.678;2022-12-17T13:01:10;63.95;;;28.67;;
24715;SDS011;12822;50.124;8.678;2022-12-17T13:03:55;67.35;;;27.75;;
24715;SDS011;12822;50.124;8.678;2022-12-17T13:06:48;69.72;;;28.48;;
24715;SDS011;12822;50.124;8.678;2022-12-17T13:11:44;64.05;;;28.25;;
24715;SDS011;12822;50.124;8.678;2022-12-17T13:14:32;63.45;;;28.50;;
24715;SDS011;12822;50.124;8.678;2022-12-17T13:16:58;70.18;;;29.25;;
24715;SDS011;12822;50.124;8.678;2022-12-17T13:27:25;59.17;;;25.63;;
24715;SDS011;12822;50.124;8.678;2022-12-17T13:29:50;65.93;;;28.20;;
24715;SDS011;12822;50.124;8.678;2022-12-17T13:32:19;64.47;;;28.10;;
24715;SDS011;12822;50.124;8.678;2022-12-17T13:37:28;62.47;;;26.85;;
24715;SDS011;12822;50.124;8.678;2022-12-17T13:40:02;67.25;;;27.98;;
24715;SDS011;12822;50.124;8.678;2022-12-17T13:42:30;63.38;;;27.77;;
24715;SDS011;12822;50.124;8.678;2022-12-17T13:44:58;60.10;;;25.50;;
24715;SDS011;12822;50.124;8.678;2022-12-17T13:47:28;59.58;;;25.30;;
24715;SDS011;12822;50.124;8.678;2022-12-17T13:49:56;64.22;;;27.15;;
24715;SDS011;12822;50.124;8.678;2022-12-17T13:52:23;70.93;;;29.63;;
24715;SDS011;12822;50.124;8.678;2022-12-17T13:54:49;62.40;;;27.20;;
24715;SDS011;12822;50.124;8.678;2022-12-17T13:57:16;64.00;;;27.42;;
24715;SDS011;12822;50.124;8.678;2022-12-17T13:59:49;69.10;;;26.25;;
24715;SDS011;12822;50.124;8.678;2022-12-17T14:02:26;61.75;;;26.58;;
24715;SDS011;12822;50.124;8.678;2022-12-17T14:04:53;66.82;;;27.05;;
24715;SDS011;12822;50.124;8.678;2022-12-17T14:07:20;63.25;;;27.88;;
24715;SDS011;12822;50.124;8.678;2022-12-17T14:09:46;58.42;;;24.80;;
24715;SDS011;12822;50.124;8.678;2022-12-17T14:12:13;60.90;;;26.67;;
24715;SDS011;12822;50.124;8.678;2022-12-17T14:14:46;68.70;;;28.27;;
24715;SDS011;12822;50.124;8.678;2022-12-17T14:17:20;69.30;;;27.15;;
24715;SDS011;12822;50.124;8.678;2022-12-17T14:19:47;63.30;;;25.52;;
24715;SDS011;12822;50.124;8.678;2022-12-17T14:22:18;63.05;;;25.85;;
24715;SDS011;12822;50.124;8.678;2022-12-17T14:24:44;67.05;;;27.17;;
24715;SDS011;12822;50.124;8.678;2022-12-17T14:27:21;75.65;;;28.52;;
24715;SDS011;12822;50.124;8.678;2022-12-17T14:29:47;68.03;;;26.67;;
24715;SDS011;12822;50.124;8.678;2022-12-17T14:32:33;65.85;;;27.30;;
24715;SDS011;12822;50.124;8.678;2022-12-17T14:34:59;71.63;;;26.75;;
24715;SDS011;12822;50.124;8.678;2022-12-17T14:37:25;67.15;;;27.35;;
24715;SDS011;12822;50.124;8.678;2022-12-17T14:39:53;66.07;;;27.35;;
24715;SDS011;12822;50.124;8.678;2022-12-17T14:42:20;68.40;;;26.83;;
24715;SDS011;12822;50.124;8.678;2022-12-17T14:47:30;66.30;;;28.77;;
24715;SDS011;12822;50.124;8.678;2022-12-17T14:52:29;67.75;;;28.50;;
24715;SDS011;12822;50.124;8.678;2022-12-17T14:54:55;72.85;;;30.85;;
24715;SDS011;12822;50.124;8.678;2022-12-17T14:57:21;71.55;;;28.77;;
24715;SDS011;12822;50.124;8.678;2022-12-17T14:59:48;78.63;;;31.45;;
24715;SDS011;12822;50.124;8.678;2022-12-17T15:02:26;77.78;;;29.83;;
24715;SDS011;12822;50.124;8.678;2022-12-17T15:04:55;67.72;;;28.55;;
24715;SDS011;12822;50.124;8.678;2022-12-17T15:07:23;76.05;;;28.85;;
24715;SDS011;12822;50.124;8.678;2022-12-17T15:09:50;74.97;;;28.40;;
24715;SDS011;12822;50.124;8.678;2022-12-17T15:12:16;75.22;;;27.52;;
24715;SDS011;12822;50.124;8.678;2022-12-17T15:14:42;68.72;;;26.55;;
24715;SDS011;12822;50.124;8.678;2022-12-17T15:17:09;72.90;;;28.75;;
24715;SDS011;12822;50.124;8.678;2022-12-17T15:19:35;78.47;;;30.42;;
24715;SDS011;12822;50.124;8.678;2022-12-17T15:22:02;75.47;;;29.20;;
24715;SDS011;12822;50.124;8.678;2022-12-17T15:24:28;74.80;;;30.30;;
24715;SDS011;12822;50.124;8.678;2022-12-17T15:26:54;70.43;;;27.88;;
24715;SDS011;12822;50.124;8.678;2022-12-17T15:29:20;68.18;;;27.85;;
24715;SDS011;12822;50.124;8.678;2022-12-17T15:31:46;72.20;;;28.00;;
24715;SDS011;12822;50.124;8.678;2022-12-17T15:34:12;74.22;;;28.73;;
24715;SDS011;12822;50.124;8.678;2022-12-17T15:36:38;78.47;;;30.00;;
24715;SDS011;12822;50.124;8.678;2022-12-17T15:39:04;81.15;;;28.60;;
24715;SDS011;12822;50.124;8.678;2022-12-17T15:41:30;75.65;;;27.67;;
24715;SDS011;12822;50.124;8.678;2022-12-17T15:44:15;73.65;;;28.30;;
24715;SDS011;12822;50.124;8.678;2022-12-17T15:46:41;66.78;;;26.58;;
24715;SDS011;12822;50.124;8.678;2022-12-17T15:49:07;65.38;;;25.88;;
24715;SDS011;12822;50.124;8.678;2022-12-17T15:51:33;66.22;;;25.88;;
24715;SDS011;12822;50.124;8.678;2022-12-17T15:53:59;69.25;;;26.05;;
24715;SDS011;12822;50.124;8.678;2022-12-17T15:56:25;66.45;;;25.92;;
24715;SDS011;12822;50.124;8.678;2022-12-17T15:58:52;65.65;;;25.73;;
24715;SDS011;12822;50.124;8.678;2022-12-17T16:01:20;65.82;;;27.10;;
24715;SDS011;12822;50.124;8.678;2022-12-17T16:03:46;66.45;;;25.83;;
24715;SDS011;12822;50.124;8.678;2022-12-17T16:06:12;68.55;;;27.65;;
24715;SDS011;12822;50.124;8.678;2022-12-17T16:08:38;68.22;;;26.88;;
24715;SDS011;12822;50.124;8.678;2022-12-17T16:11:05;69.60;;;28.88;;
24715;SDS011;12822;50.124;8.678;2022-12-17T16:13:31;70.32;;;26.70;;
24715;SDS011;12822;50.124;8.678;2022-12-17T16:15:57;82.68;;;28.17;;
24715;SDS011;12822;50.124;8.678;2022-12-17T16:18:24;81.72;;;28.00;;
24715;SDS011;12822;50.124;8.678;2022-12-17T16:20:50;70.82;;;28.80;;
24715;SDS011;12822;50.124;8.678;2022-12-17T16:23:16;73.90;;;27.95;;
24715;SDS011;12822;50.124;8.678;2022-12-17T16:25:42;70.88;;;27.80;;
24715;SDS011;12822;50.124;8.678;2022-12-17T16:28:08;72.00;;;27.38;;
24715;SDS011;12822;50.124;8.678;2022-12-17T16:30:34;73.38;;;27.60;;
24715;SDS011;12822;50.124;8.678;2022-12-17T16:33:00;74.43;;;29.13;;
24715;SDS011;12822;50.124;8.678;2022-12-17T16:35:26;78.53;;;28.15;;
24715;SDS011;12822;50.124;8.678;2022-12-17T16:37:52;83.13;;;30.95;;
24715;SDS011;12822;50.124;8.678;2022-12-17T16:40:19;78.05;;;28.30;;
24715;SDS011;12822;50.124;8.678;2022-12-17T16:42:45;78.40;;;30.13;;
24715;SDS011;12822;50.124;8.678;2022-12-17T16:45:11;76.88;;;30.38;;
24715;SDS011;12822;50.124;8.678;2022-12-17T16:47:37;81.18;;;29.05;;